createdAt,value
2023-04-29T00:00:06.894Z,101350.88
2023-04-29T00:02:37.670Z,101349.19
2023-04-29T00:05:11.055Z,101352.16
2023-04-29T00:07:42.313Z,101352.31
2023-04-29T00:10:14.917Z,101354.19
2023-04-29T00:12:49.393Z,101351.72
2023-04-29T00:15:21.946Z,101357.97
2023-04-29T00:17:51.815Z,101363.31
2023-04-29T00:20:21.836Z,101357.97
2023-04-29T00:22:51.703Z,101356.94
2023-04-29T00:25:21.589Z,101357.19
2023-04-29T00:27:51.480Z,101359.78
2023-04-29T00:30:23.902Z,101367.59
2023-04-29T00:32:53.952Z,101367.50
2023-04-29T00:35:23.826Z,101376.34
2023-04-29T00:37:53.899Z,101374.50
2023-04-29T00:40:24.145Z,101386.09
2023-04-29T00:42:54.186Z,101383.44
2023-04-29T00:45:27.876Z,101383.47
2023-04-29T00:47:57.738Z,101392.22
2023-04-29T00:50:28.075Z,101386.31
2023-04-29T00:52:57.942Z,101388.06
2023-04-29T00:55:29.206Z,101386.09
2023-04-29T00:57:59.913Z,101390.69
2023-04-29T01:00:33.199Z,101401.28
2023-04-29T01:03:04.428Z,101395.94
2023-04-29T01:05:40.449Z,101406.38
2023-04-29T01:08:32.901Z,101402.84
2023-04-29T01:11:11.091Z,101409.84
2023-04-29T01:13:47.239Z,101410.47
2023-04-29T01:16:26.496Z,101416.34
2023-04-29T01:19:01.636Z,101419.72
2023-04-29T01:21:32.306Z,101417.03
2023-04-29T01:24:04.726Z,101417.16
2023-04-29T01:26:36.148Z,101413.78
2023-04-29T01:29:27.737Z,101420.91
2023-04-29T01:32:09.238Z,101428.94
2023-04-29T01:34:48.020Z,101431.84
2023-04-29T01:37:23.027Z,101429.25
2023-04-29T01:40:11.204Z,101432.88
2023-04-29T01:42:47.256Z,101439.09
2023-04-29T01:45:21.574Z,101435.56
2023-04-29T01:47:56.194Z,101443.38
2023-04-29T01:50:26.885Z,101448.09
2023-04-29T01:52:56.752Z,101455.97
2023-04-29T01:55:29.468Z,101451.47
2023-04-29T01:57:59.290Z,101459.63
2023-04-29T02:00:29.935Z,101457.19
2023-04-29T02:02:59.905Z,101472.25
2023-04-29T02:05:34.542Z,101470.34
2023-04-29T02:08:10.377Z,101476.50
2023-04-29T02:10:45.506Z,101473.16
2023-04-29T02:13:15.347Z,101480.16
2023-04-29T02:15:45.217Z,101487.06
2023-04-29T02:18:15.070Z,101502.84
2023-04-29T02:20:45.095Z,101495.78
2023-04-29T02:23:14.904Z,101501.03
2023-04-29T02:25:47.981Z,101501.03
2023-04-29T02:28:18.082Z,101502.91
2023-04-29T02:30:48.096Z,101518.00
2023-04-29T02:33:18.618Z,101514.84
2023-04-29T02:35:48.636Z,101514.66
2023-04-29T02:38:18.524Z,101527.91
2023-04-29T02:40:50.943Z,101525.94
2023-04-29T02:43:20.733Z,101527.78
2023-04-29T02:45:50.577Z,101526.84
2023-04-29T02:48:21.546Z,101534.91
2023-04-29T02:50:51.768Z,101533.97
2023-04-29T02:53:22.122Z,101536.69
2023-04-29T02:55:54.558Z,101542.63
2023-04-29T02:58:24.428Z,101550.31
2023-04-29T03:00:54.292Z,101551.97
2023-04-29T03:03:24.286Z,101557.28
2023-04-29T03:06:01.114Z,101552.53
2023-04-29T03:08:30.921Z,101553.38
2023-04-29T03:11:05.687Z,101560.31
2023-04-29T03:13:35.551Z,101562.16
2023-04-29T03:16:05.368Z,101566.38
2023-04-29T03:18:35.217Z,101568.50
2023-04-29T03:21:05.086Z,101574.59
2023-04-29T03:23:34.913Z,101576.75
2023-04-29T03:26:07.427Z,101581.03
2023-04-29T03:28:37.320Z,101587.06
2023-04-29T03:31:07.443Z,101574.53
2023-04-29T03:33:39.592Z,101585.03
2023-04-29T03:36:10.809Z,101578.94
2023-04-29T03:38:40.600Z,101583.41
2023-04-29T03:41:13.340Z,101591.34
2023-04-29T03:43:45.133Z,101584.34
2023-04-29T03:46:14.961Z,101586.97
2023-04-29T03:48:44.774Z,101593.06
2023-04-29T03:51:15.137Z,101586.03
2023-04-29T03:53:48.080Z,101596.38
2023-04-29T03:56:20.720Z,101602.56
2023-04-29T03:58:50.587Z,101605.25
2023-04-29T04:01:20.413Z,101605.94
2023-04-29T04:03:51.152Z,101612.16
2023-04-29T04:06:21.196Z,101614.78
2023-04-29T04:08:51.016Z,101621.00
2023-04-29T04:11:23.477Z,101620.13
2023-04-29T04:13:53.317Z,101617.63
2023-04-29T04:16:23.113Z,101618.34
2023-04-29T04:18:52.909Z,101625.00
2023-04-29T04:21:22.725Z,101635.38
2023-04-29T04:23:52.527Z,101638.97
2023-04-29T04:26:25.036Z,101650.28
2023-04-29T04:28:54.873Z,101652.88
2023-04-29T04:31:24.724Z,101658.41
2023-04-29T04:33:54.563Z,101661.94
2023-04-29T04:36:24.458Z,101662.78
2023-04-29T04:38:54.282Z,101673.38
2023-04-29T04:41:27.038Z,101672.44
2023-04-29T04:43:56.831Z,101675.06
2023-04-29T04:46:26.712Z,101669.53
2023-04-29T04:48:56.583Z,101684.47
2023-04-29T04:51:29.145Z,101680.84
2023-04-29T04:53:58.969Z,101686.13
2023-04-29T04:56:31.393Z,101687.19
2023-04-29T04:59:01.219Z,101693.34
2023-04-29T05:01:31.068Z,101689.97
2023-04-29T05:04:01.028Z,101694.50
2023-04-29T05:06:35.574Z,101700.75
2023-04-29T05:09:05.651Z,101704.50
2023-04-29T05:11:38.877Z,101706.06
2023-04-29T05:14:09.200Z,101699.09
2023-04-29T05:16:39.052Z,101705.50
2023-04-29T05:19:09.843Z,101706.81
2023-04-29T05:21:39.682Z,101710.28
2023-04-29T05:24:09.772Z,101710.16
2023-04-29T05:26:43.906Z,101708.59
2023-04-29T05:29:13.885Z,101718.47
2023-04-29T05:31:43.765Z,101709.50
2023-04-29T05:34:13.650Z,101720.88
2023-04-29T05:36:43.494Z,101726.88
2023-04-29T05:39:13.394Z,101725.50
2023-04-29T05:41:46.051Z,101724.63
2023-04-29T05:44:15.895Z,101728.31
2023-04-29T05:46:46.635Z,101729.69
2023-04-29T05:49:16.466Z,101723.06
2023-04-29T05:51:46.346Z,101719.09
2023-04-29T05:54:16.167Z,101731.50
2023-04-29T05:56:48.711Z,101732.78
2023-04-29T05:59:18.559Z,101734.78
2023-04-29T06:01:48.919Z,101743.75
2023-04-29T06:04:18.836Z,101747.56
2023-04-29T06:06:50.636Z,101751.63
2023-04-29T06:09:27.582Z,101755.50
2023-04-29T06:12:00.859Z,101763.72
2023-04-29T06:14:30.678Z,101763.31
2023-04-29T06:17:00.628Z,101759.91
2023-04-29T06:19:30.533Z,101760.56
2023-04-29T06:22:00.310Z,101764.47
2023-04-29T06:24:30.169Z,101776.81
2023-04-29T06:27:04.494Z,101771.16
2023-04-29T06:29:36.073Z,101778.31
2023-04-29T06:32:05.969Z,101778.31
2023-04-29T06:34:36.350Z,101781.06
2023-04-29T06:37:06.148Z,101782.13
2023-04-29T06:39:35.987Z,101778.91
2023-04-29T06:42:08.470Z,101787.41
2023-04-29T06:44:38.300Z,101784.56
2023-04-29T06:47:08.205Z,101790.41
2023-04-29T06:49:38.142Z,101795.88
2023-04-29T06:52:10.510Z,101793.63
2023-04-29T06:54:40.373Z,101807.25
2023-04-29T06:57:12.937Z,101798.44
2023-04-29T06:59:42.826Z,101797.97
2023-04-29T07:02:12.645Z,101814.19
2023-04-29T07:04:42.681Z,101813.91
2023-04-29T07:07:12.652Z,101825.81
2023-04-29T07:09:42.552Z,101829.59
2023-04-29T07:12:15.064Z,101839.69
2023-04-29T07:14:51.204Z,101843.31
2023-04-29T07:17:24.028Z,101841.88
2023-04-29T07:19:58.056Z,101849.25
2023-04-29T07:22:29.684Z,101845.88
2023-04-29T07:24:59.633Z,101856.63
2023-04-29T07:27:32.270Z,101853.09
2023-04-29T07:30:03.388Z,101855.50
2023-04-29T07:32:34.304Z,101852.06
2023-04-29T07:35:04.173Z,101852.06
2023-04-29T07:37:34.341Z,101857.00
2023-04-29T07:40:04.156Z,101853.44
2023-04-29T07:42:36.537Z,101853.97
2023-04-29T07:45:06.762Z,101864.59
2023-04-29T07:47:36.855Z,101868.50
2023-04-29T07:50:07.048Z,101877.69
2023-04-29T07:52:37.944Z,101876.78
2023-04-29T07:55:08.665Z,101876.88
2023-04-29T07:57:41.091Z,101880.34
2023-04-29T08:00:12.702Z,101876.06
2023-04-29T08:02:43.293Z,101887.88
2023-04-29T08:05:13.700Z,101881.84
2023-04-29T08:07:43.772Z,101890.81
2023-04-29T08:10:13.713Z,101896.34
2023-04-29T08:12:51.832Z,101894.69
2023-04-29T08:15:21.652Z,101901.56
2023-04-29T08:17:51.500Z,101898.28
2023-04-29T08:20:21.750Z,101898.38
2023-04-29T08:22:51.591Z,101907.91
2023-04-29T08:25:21.765Z,101905.25
2023-04-29T08:27:54.154Z,101912.09
2023-04-29T08:30:24.126Z,101914.44
2023-04-29T08:32:54.005Z,101910.75
2023-04-29T08:35:24.046Z,101911.25
2023-04-29T08:37:56.061Z,101912.66
2023-04-29T08:40:26.640Z,101922.25
2023-04-29T08:43:00.425Z,101926.69
2023-04-29T08:45:32.654Z,101930.00
2023-04-29T08:48:05.652Z,101932.59
2023-04-29T08:50:40.237Z,101933.69
2023-04-29T08:53:10.891Z,101934.91
2023-04-29T08:55:45.141Z,101941.03
2023-04-29T08:58:20.515Z,101954.53
2023-04-29T09:00:51.821Z,101949.53
2023-04-29T09:03:27.984Z,101949.63
2023-04-29T09:06:05.580Z,101960.31
2023-04-29T09:08:36.485Z,101960.31
2023-04-29T09:11:07.537Z,101969.19
2023-04-29T09:13:40.125Z,101970.75
2023-04-29T09:16:14.190Z,101962.56
2023-04-29T09:18:49.039Z,101968.03
2023-04-29T09:21:22.320Z,101978.31
2023-04-29T09:23:54.647Z,101974.03
2023-04-29T09:26:25.323Z,101976.81
2023-04-29T09:29:19.369Z,101980.41
2023-04-29T09:31:49.888Z,101983.91
2023-04-29T09:34:19.978Z,101979.63
2023-04-29T09:36:51.221Z,101979.53
2023-04-29T09:39:22.597Z,101977.75
2023-04-29T09:42:03.483Z,101981.16
2023-04-29T09:44:38.601Z,101975.84
2023-04-29T09:47:09.683Z,101978.59
2023-04-29T09:49:42.095Z,101986.19
2023-04-29T09:52:13.747Z,101983.53
2023-04-29T09:54:44.957Z,101984.41
2023-04-29T09:57:16.159Z,101982.63
2023-04-29T09:59:56.043Z,101988.84
2023-04-29T10:02:26.798Z,101992.28
2023-04-29T10:05:04.496Z,101978.78
2023-04-29T10:07:39.551Z,101981.38
2023-04-29T10:13:00.946Z,101987.00
2023-04-29T10:15:45.519Z,101992.28
2023-04-29T10:18:22.290Z,101986.81
2023-04-29T10:20:52.897Z,101993.16
2023-04-29T10:23:26.932Z,101993.19
2023-04-29T10:26:06.401Z,101987.19
2023-04-29T10:28:47.725Z,101989.00
2023-04-29T10:34:09.622Z,101997.13
2023-04-29T10:36:45.972Z,101998.06
2023-04-29T10:39:25.814Z,102007.97
2023-04-29T10:41:59.234Z,101998.28
2023-04-29T10:44:33.252Z,102010.50
2023-04-29T10:47:38.064Z,102009.41
2023-04-29T10:50:21.484Z,102010.19
2023-04-29T10:53:03.833Z,102003.84
2023-04-29T10:55:34.429Z,102022.31
2023-04-29T10:58:06.404Z,102016.59
2023-04-29T11:00:38.024Z,102017.28
2023-04-29T11:03:09.537Z,102022.28
2023-04-29T11:05:53.735Z,102020.78
2023-04-29T11:08:26.766Z,102022.84
2023-04-29T11:10:58.644Z,102021.94
2023-04-29T11:13:34.311Z,102024.38
2023-04-29T11:16:10.329Z,102025.00
2023-04-29T11:19:01.064Z,102024.06
2023-04-29T11:21:41.010Z,102031.22
2023-04-29T11:24:15.848Z,102027.72
2023-04-29T11:26:46.677Z,102026.97
2023-04-29T11:29:17.094Z,102031.34
2023-04-29T11:31:47.119Z,102035.19
2023-04-29T11:34:17.042Z,102030.00
2023-04-29T11:36:51.353Z,102032.50
2023-04-29T11:39:21.548Z,102020.88
2023-04-29T11:41:57.220Z,102028.56
2023-04-29T11:44:27.123Z,102025.00
2023-04-29T11:46:57.195Z,102026.69
2023-04-29T11:49:32.993Z,102030.94
2023-04-29T11:52:05.593Z,102031.28
2023-04-29T11:54:36.983Z,102031.59
2023-04-29T11:57:07.442Z,102025.00
2023-04-29T11:59:37.595Z,102023.59
2023-04-29T12:02:07.530Z,102019.19
2023-04-29T12:04:42.986Z,102024.56
2023-04-29T12:07:17.759Z,102025.59
2023-04-29T12:09:48.496Z,102019.53
2023-04-29T12:12:18.828Z,102032.09
2023-04-29T12:14:48.811Z,102032.28
2023-04-29T12:17:19.084Z,102033.38
2023-04-29T12:19:49.496Z,102042.31
2023-04-29T12:22:22.759Z,102039.81
2023-04-29T12:24:56.937Z,102040.44
2023-04-29T12:27:27.125Z,102035.75
2023-04-29T12:29:56.968Z,102040.91
2023-04-29T12:32:28.559Z,102047.16
2023-04-29T12:34:58.669Z,102048.25
2023-04-29T12:37:31.223Z,102055.84
2023-04-29T12:40:01.357Z,102055.66
2023-04-29T12:42:36.372Z,102061.94
2023-04-29T12:45:09.879Z,102063.31
2023-04-29T12:47:42.488Z,102063.22
2023-04-29T12:50:14.226Z,102066.13
2023-04-29T12:52:53.005Z,102067.88
2023-04-29T12:55:28.371Z,102069.31
2023-04-29T12:58:09.732Z,102062.91
2023-04-29T13:00:48.278Z,102071.06
2023-04-29T13:03:22.910Z,102065.94
2023-04-29T13:05:57.869Z,102067.72
2023-04-29T13:08:34.381Z,102077.09
2023-04-29T13:11:04.280Z,102077.56
2023-04-29T13:13:34.068Z,102082.31
2023-04-29T13:16:07.749Z,102088.50
2023-04-29T13:18:39.013Z,102093.88
2023-04-29T13:21:09.043Z,102092.91
2023-04-29T13:23:41.454Z,102103.28
2023-04-29T13:26:13.209Z,102093.88
2023-04-29T13:28:43.806Z,102101.56
2023-04-29T13:31:13.709Z,102112.88
2023-04-29T13:33:43.623Z,102106.69
2023-04-29T13:36:13.526Z,102102.28
2023-04-29T13:38:48.132Z,102107.53
2023-04-29T13:41:20.448Z,102109.25
2023-04-29T13:43:51.129Z,102103.34
2023-04-29T13:46:21.318Z,102112.09
2023-04-29T13:52:06.670Z,102107.25
2023-04-29T14:02:23.179Z,102120.00
2023-04-29T14:04:45.058Z,102116.47
2023-04-29T14:07:17.475Z,102120.81
2023-04-29T14:09:49.870Z,102127.69
2023-04-29T14:12:19.666Z,102123.59
2023-04-29T14:14:49.503Z,102129.13
2023-04-29T14:17:19.314Z,102128.94
2023-04-29T14:19:49.158Z,102130.69
2023-04-29T14:22:18.989Z,102134.13
2023-04-29T14:24:51.931Z,102140.44
2023-04-29T14:27:22.184Z,102147.47
2023-04-29T14:29:52.027Z,102140.09
2023-04-29T14:32:21.836Z,102147.09
2023-04-29T14:34:53.327Z,102142.69
2023-04-29T14:37:25.146Z,102139.44
2023-04-29T14:39:58.132Z,102143.06
2023-04-29T14:42:29.361Z,102141.75
2023-04-29T14:45:02.240Z,102146.56
2023-04-29T14:47:35.038Z,102149.22
2023-04-29T14:50:08.194Z,102151.59
2023-04-29T14:55:41.463Z,102141.56
2023-04-29T14:58:13.664Z,102143.25
2023-04-29T15:00:51.247Z,102143.34
2023-04-29T15:03:28.436Z,102148.03
2023-04-29T15:06:02.556Z,102149.78
2023-04-29T15:08:40.516Z,102152.53
2023-04-29T15:11:14.499Z,102149.44
2023-04-29T15:13:46.550Z,102160.81
2023-04-29T15:16:16.461Z,102155.31
2023-04-29T15:18:46.754Z,102156.09
2023-04-29T15:21:18.894Z,102157.59
2023-04-29T15:23:48.888Z,102162.50
2023-04-29T15:26:22.019Z,102161.31
2023-04-29T15:28:51.872Z,102163.53
2023-04-29T15:31:24.305Z,102162.38
2023-04-29T15:33:57.184Z,102156.94
2023-04-29T15:36:32.362Z,102152.47
2023-04-29T15:39:02.394Z,102165.69
2023-04-29T15:41:35.568Z,102164.50
2023-04-29T15:44:05.536Z,102171.47
2023-04-29T15:46:35.403Z,102175.09
2023-04-29T15:49:06.236Z,102180.97
2023-04-29T15:51:36.108Z,102180.91
2023-04-29T15:54:07.514Z,102180.53
2023-04-29T15:56:40.326Z,102178.53
2023-04-29T15:59:10.178Z,102176.59
2023-04-29T16:01:40.075Z,102183.53
2023-04-29T16:04:11.530Z,102181.78
2023-04-29T16:06:46.910Z,102183.44
2023-04-29T16:09:16.852Z,102184.28
2023-04-29T16:11:49.299Z,102179.91
2023-04-29T16:14:19.189Z,102194.81
2023-04-29T16:16:49.069Z,102192.81
2023-04-29T16:19:18.994Z,102190.09
2023-04-29T16:21:48.852Z,102190.94
2023-04-29T16:24:18.917Z,102197.81
2023-04-29T16:26:52.448Z,102194.97
2023-04-29T16:29:22.384Z,102196.84
2023-04-29T16:31:52.339Z,102202.28
2023-04-29T16:34:22.254Z,102205.88
2023-04-29T16:36:52.123Z,102204.78
2023-04-29T16:39:21.925Z,102211.75
2023-04-29T16:41:54.489Z,102204.44
2023-04-29T16:44:24.346Z,102203.53
2023-04-29T16:46:54.996Z,102208.03
2023-04-29T16:49:28.311Z,102197.44
2023-04-29T16:51:58.210Z,102200.34
2023-04-29T16:54:28.045Z,102204.16
2023-04-29T16:57:00.503Z,102196.34
2023-04-29T16:59:31.113Z,102201.72
2023-04-29T17:02:03.042Z,102192.16
2023-04-29T17:04:34.168Z,102195.88
2023-04-29T17:07:04.339Z,102204.84
2023-04-29T17:09:38.304Z,102197.75
2023-04-29T17:12:11.302Z,102202.84
2023-04-29T17:14:41.151Z,102204.47
2023-04-29T17:17:21.758Z,102211.44
2023-04-29T17:19:55.791Z,102207.69
2023-04-29T17:22:36.865Z,102214.44
2023-04-29T17:25:08.484Z,102212.44
2023-04-29T17:27:41.258Z,102214.84
2023-04-29T17:30:17.485Z,102225.25
2023-04-29T17:32:56.305Z,102221.81
2023-04-29T17:35:27.492Z,102225.25
2023-04-29T17:37:57.278Z,102226.66
2023-04-29T17:40:27.391Z,102218.41
2023-04-29T17:42:59.760Z,102227.94
2023-04-29T17:45:29.656Z,102224.19
2023-04-29T17:47:59.512Z,102224.78
2023-04-29T17:50:30.932Z,102232.50
2023-04-29T17:53:00.820Z,102223.47
2023-04-29T17:55:31.198Z,102228.69
2023-04-29T17:58:03.603Z,102233.75
2023-04-29T18:00:35.234Z,102239.78
2023-04-29T18:03:05.237Z,102238.03
2023-04-29T18:05:37.483Z,102236.88
2023-04-29T18:08:08.067Z,102239.22
2023-04-29T18:10:37.884Z,102233.03
2023-04-29T18:13:10.260Z,102244.16
2023-04-29T18:15:40.108Z,102242.00
2023-04-29T18:18:10.081Z,102233.53
2023-04-29T18:20:43.261Z,102249.63
2023-04-29T18:23:14.235Z,102241.44
2023-04-29T18:25:44.112Z,102248.66
2023-04-29T18:28:24.627Z,102251.81
2023-04-29T18:30:57.042Z,102252.19
2023-04-29T18:33:27.012Z,102253.66
2023-04-29T18:35:57.416Z,102263.72
2023-04-29T18:38:27.337Z,102254.78
2023-04-29T18:40:57.243Z,102262.34
2023-04-29T18:43:31.137Z,102256.94
2023-04-29T18:46:02.916Z,102265.84
2023-04-29T18:48:32.756Z,102267.63
2023-04-29T18:51:04.526Z,102269.28
2023-04-29T18:53:34.507Z,102274.34
2023-04-29T18:56:07.406Z,102263.56
2023-04-29T18:58:39.795Z,102262.34
2023-04-29T19:01:09.941Z,102266.38
2023-04-29T19:03:40.481Z,102261.91
2023-04-29T19:06:10.475Z,102264.38
2023-04-29T19:08:40.340Z,102266.88
2023-04-29T19:11:10.137Z,102275.53
2023-04-29T19:13:42.579Z,102281.91
2023-04-29T19:16:13.295Z,102287.66
2023-04-29T19:18:43.222Z,102292.03
2023-04-29T19:21:14.929Z,102293.72
2023-04-29T19:23:44.937Z,102285.78
2023-04-29T19:26:18.568Z,102294.56
2023-04-29T19:28:50.982Z,102293.72
2023-04-29T19:31:20.869Z,102286.66
2023-04-29T19:33:52.535Z,102284.94
2023-04-29T19:36:22.467Z,102285.03
2023-04-29T19:38:52.334Z,102279.75
2023-04-29T19:41:22.760Z,102282.53
2023-04-29T19:43:55.195Z,102279.06
2023-04-29T19:46:25.086Z,102276.53
2023-04-29T19:48:55.262Z,102280.06
2023-04-29T19:51:25.451Z,102283.69
2023-04-29T19:53:56.722Z,102283.03
2023-04-29T19:56:26.637Z,102284.84
2023-04-29T19:58:59.075Z,102284.84
2023-04-29T20:01:28.904Z,102294.53
2023-04-29T20:03:58.698Z,102300.81
2023-04-29T20:06:29.935Z,102286.81
2023-04-29T20:08:59.769Z,102297.50
2023-04-29T20:11:29.744Z,102304.59
2023-04-29T20:14:36.860Z,102299.31
2023-04-29T20:17:00.247Z,102301.94
2023-04-29T20:52:51.637Z,102332.28
2023-04-29T20:55:21.482Z,102326.81
2023-04-29T20:57:51.960Z,102326.50
2023-04-29T21:00:21.891Z,102330.38
2023-04-29T21:02:51.739Z,102336.97
2023-04-29T21:05:21.600Z,102327.94
2023-04-29T21:07:54.156Z,102335.41
2023-04-29T21:10:24.173Z,102335.16
2023-04-29T21:12:54.809Z,102332.44
2023-04-29T21:15:24.837Z,102321.84
2023-04-29T21:17:54.709Z,102328.75
2023-04-29T21:20:25.318Z,102332.13
2023-04-29T21:22:58.548Z,102328.47
2023-04-29T21:25:28.464Z,102333.75
2023-04-29T21:27:58.314Z,102330.97
2023-04-29T21:30:28.689Z,102328.16
2023-04-29T21:32:58.559Z,102324.53
2023-04-29T21:35:29.694Z,102330.44
2023-04-29T21:38:02.265Z,102324.91
2023-04-29T21:40:32.170Z,102337.09
2023-04-29T21:43:02.223Z,102332.56
2023-04-29T21:45:34.875Z,102333.28
2023-04-29T21:48:16.359Z,102333.84
2023-04-29T21:50:47.011Z,102337.22
2023-04-29T21:53:19.776Z,102330.97
2023-04-29T21:55:49.673Z,102340.44
2023-04-29T23:41:23.325Z,102384.34
2023-04-29T23:43:53.137Z,102392.06
2023-04-29T23:46:23.161Z,102389.25
2023-04-29T23:48:53.028Z,102388.25
2023-04-29T23:51:22.925Z,102384.63
2023-04-29T23:53:52.854Z,102390.47
2023-04-29T23:56:30.620Z,102392.94
2023-04-29T23:59:00.493Z,102395.38
